sensor_id;sensor_type;location;lat;lon;timestamp;pressure;altitude;pressure_sealevel;temperature;humidity
64192;BME280;50497;50.720;-2.084;2022-08-19T00:00:44;101376.72;;;19.38;100.00
64192;BME280;50497;50.720;-2.084;2022-08-19T00:03:10;101382.69;;;19.30;100.00
64192;BME280;50497;50.720;-2.084;2022-08-19T00:05:36;101378.03;;;19.32;100.00
64192;BME280;50497;50.720;-2.084;2022-08-19T00:08:02;101373.59;;;19.31;100.00
64192;BME280;50497;50.720;-2.084;2022-08-19T00:10:28;101369.78;;;19.34;100.00
64192;BME280;50497;50.720;-2.084;2022-08-19T00:12:53;101360.44;;;19.38;100.00
64192;BME280;50497;50.720;-2.084;2022-08-19T00:15:20;101368.66;;;19.49;100.00
64192;BME280;50497;50.720;-2.084;2022-08-19T00:17:50;101370.94;;;19.43;100.00
64192;BME280;50497;50.720;-2.084;2022-08-19T00:20:19;101373.44;;;19.46;100.00
64192;BME280;50497;50.720;-2.084;2022-08-19T00:22:45;101362.41;;;19.36;100.00
64192;BME280;50497;50.720;-2.084;2022-08-19T00:25:12;101376.72;;;19.38;100.00
64192;BME280;50497;50.720;-2.084;2022-08-19T00:27:39;101381.50;;;19.34;100.00
64192;BME280;50497;50.720;-2.084;2022-08-19T00:30:05;101392.38;;;19.34;100.00
64192;BME280;50497;50.720;-2.084;2022-08-19T00:32:36;101381.72;;;19.31;100.00
64192;BME280;50497;50.720;-2.084;2022-08-19T00:35:02;101389.31;;;19.39;100.00
64192;BME280;50497;50.720;-2.084;2022-08-19T00:37:29;101377.91;;;19.34;100.00
64192;BME280;50497;50.720;-2.084;2022-08-19T00:39:54;101385.19;;;19.33;100.00
64192;BME280;50497;50.720;-2.084;2022-08-19T00:42:22;101383.03;;;19.26;100.00
64192;BME280;50497;50.720;-2.084;2022-08-19T00:44:51;101387.38;;;19.28;100.00
64192;BME280;50497;50.720;-2.084;2022-08-19T00:47:17;101380.63;;;19.34;100.00
64192;BME280;50497;50.720;-2.084;2022-08-19T00:49:50;101388.66;;;19.35;100.00
64192;BME280;50497;50.720;-2.084;2022-08-19T00:52:31;101384.16;;;19.23;100.00
64192;BME280;50497;50.720;-2.084;2022-08-19T00:55:02;101387.16;;;19.31;100.00
64192;BME280;50497;50.720;-2.084;2022-08-19T00:57:38;101385.19;;;19.33;100.00
64192;BME280;50497;50.720;-2.084;2022-08-19T01:00:14;101377.06;;;19.33;100.00
64192;BME280;50497;50.720;-2.084;2022-08-19T01:02:41;101385.94;;;19.35;100.00
64192;BME280;50497;50.720;-2.084;2022-08-19T01:05:11;101376.63;;;19.27;100.00
64192;BME280;50497;50.720;-2.084;2022-08-19T01:07:42;101378.91;;;19.33;100.00
64192;BME280;50497;50.720;-2.084;2022-08-19T01:10:12;101381.50;;;19.34;100.00
64192;BME280;50497;50.720;-2.084;2022-08-19T01:12:39;101377.28;;;19.30;100.00
64192;BME280;50497;50.720;-2.084;2022-08-19T01:15:14;101383.13;;;19.37;100.00
64192;BME280;50497;50.720;-2.084;2022-08-19T01:17:41;101367.59;;;19.39;100.00
64192;BME280;50497;50.720;-2.084;2022-08-19T01:20:13;101365.00;;;19.37;100.00
64192;BME280;50497;50.720;-2.084;2022-08-19T01:22:50;101367.59;;;19.39;100.00
64192;BME280;50497;50.720;-2.084;2022-08-19T01:25:27;101370.66;;;19.34;100.00
64192;BME280;50497;50.720;-2.084;2022-08-19T01:27:54;101353.84;;;19.29;100.00
64192;BME280;50497;50.720;-2.084;2022-08-19T01:30:24;101361.09;;;19.29;100.00
64192;BME280;50497;50.720;-2.084;2022-08-19T01:32:51;101366.94;;;19.35;100.00
64192;BME280;50497;50.720;-2.084;2022-08-19T01:35:18;101367.31;;;19.31;100.00
64192;BME280;50497;50.720;-2.084;2022-08-19T01:37:56;101362.44;;;19.23;100.00
64192;BME280;50497;50.720;-2.084;2022-08-19T01:40:25;101366.09;;;19.35;100.00
64192;BME280;50497;50.720;-2.084;2022-08-19T01:42:52;101370.66;;;19.34;100.00
64192;BME280;50497;50.720;-2.084;2022-08-19T01:45:20;101360.66;;;19.35;100.00
64192;BME280;50497;50.720;-2.084;2022-08-19T01:47:54;101360.03;;;19.31;100.00
64192;BME280;50497;50.720;-2.084;2022-08-19T01:50:26;101378.28;;;19.29;100.00
64192;BME280;50497;50.720;-2.084;2022-08-19T01:52:58;101369.03;;;19.32;100.00
64192;BME280;50497;50.720;-2.084;2022-08-19T01:55:25;101365.91;;;19.25;100.00
64192;BME280;50497;50.720;-2.084;2022-08-19T01:57:55;101363.19;;;19.25;100.00
64192;BME280;50497;50.720;-2.084;2022-08-19T02:00:29;101365.44;;;19.31;100.00
64192;BME280;50497;50.720;-2.084;2022-08-19T02:02:59;101362.66;;;19.20;100.00
64192;BME280;50497;50.720;-2.084;2022-08-19T02:05:30;101362.66;;;19.20;100.00
64192;BME280;50497;50.720;-2.084;2022-08-19T02:08:03;101367.34;;;19.18;100.00
64192;BME280;50497;50.720;-2.084;2022-08-19T02:10:29;101378.09;;;19.19;100.00
64192;BME280;50497;50.720;-2.084;2022-08-19T02:12:58;101366.34;;;19.19;100.00
64192;BME280;50497;50.720;-2.084;2022-08-19T02:15:24;101362.59;;;19.09;100.00
64192;BME280;50497;50.720;-2.084;2022-08-19T02:17:51;101366.59;;;19.16;100.00
64192;BME280;50497;50.720;-2.084;2022-08-19T02:20:20;101370.72;;;19.09;100.00
64192;BME280;50497;50.720;-2.084;2022-08-19T02:22:45;101373.34;;;18.97;100.00
64192;BME280;50497;50.720;-2.084;2022-08-19T02:25:17;101379.34;;;19.02;100.00
64192;BME280;50497;50.720;-2.084;2022-08-19T02:27:43;101375.19;;;18.97;100.00
64192;BME280;50497;50.720;-2.084;2022-08-19T02:30:14;101375.94;;;18.99;100.00
64192;BME280;50497;50.720;-2.084;2022-08-19T02:32:41;101381.63;;;18.96;100.00
64192;BME280;50497;50.720;-2.084;2022-08-19T02:35:18;101384.19;;;18.97;100.00
64192;BME280;50497;50.720;-2.084;2022-08-19T02:37:44;101383.13;;;19.00;100.00
64192;BME280;50497;50.720;-2.084;2022-08-19T02:40:35;101387.03;;;18.96;100.00
64192;BME280;50497;50.720;-2.084;2022-08-19T02:43:09;101390.03;;;19.04;100.00
64192;BME280;50497;50.720;-2.084;2022-08-19T02:45:38;101387.91;;;18.96;100.00
64192;BME280;50497;50.720;-2.084;2022-08-19T02:48:05;101381.63;;;18.96;100.00
64192;BME280;50497;50.720;-2.084;2022-08-19T02:50:31;101385.31;;;18.95;100.00
64192;BME280;50497;50.720;-2.084;2022-08-19T02:52:57;101379.88;;;18.95;100.00
64192;BME280;50497;50.720;-2.084;2022-08-19T02:55:23;101377.16;;;18.95;100.00
64192;BME280;50497;50.720;-2.084;2022-08-19T02:57:49;101361.97;;;18.92;100.00
64192;BME280;50497;50.720;-2.084;2022-08-19T03:00:15;101378.13;;;18.94;100.00
64192;BME280;50497;50.720;-2.084;2022-08-19T03:02:44;101380.41;;;18.87;100.00
64192;BME280;50497;50.720;-2.084;2022-08-19T03:05:12;101379.00;;;18.81;100.00
64192;BME280;50497;50.720;-2.084;2022-08-19T03:07:38;101386.06;;;18.84;100.00
64192;BME280;50497;50.720;-2.084;2022-08-19T03:10:04;101388.97;;;18.94;100.00
64192;BME280;50497;50.720;-2.084;2022-08-19T03:12:29;101381.84;;;18.93;100.00
64192;BME280;50497;50.720;-2.084;2022-08-19T03:14:55;101386.25;;;18.94;100.00
64192;BME280;50497;50.720;-2.084;2022-08-19T03:17:25;101383.34;;;18.84;100.00
64192;BME280;50497;50.720;-2.084;2022-08-19T03:20:00;101383.13;;;18.87;100.00
64192;BME280;50497;50.720;-2.084;2022-08-19T03:22:26;101373.28;;;18.86;100.00
64192;BME280;50497;50.720;-2.084;2022-08-19T03:24:51;101380.31;;;18.89;100.00
64192;BME280;50497;50.720;-2.084;2022-08-19T03:27:21;101388.09;;;18.80;100.00
64192;BME280;50497;50.720;-2.084;2022-08-19T03:29:55;101389.31;;;18.76;100.00
64192;BME280;50497;50.720;-2.084;2022-08-19T03:32:28;101386.91;;;18.72;100.00
64192;BME280;50497;50.720;-2.084;2022-08-19T03:34:56;101379.53;;;18.74;100.00
64192;BME280;50497;50.720;-2.084;2022-08-19T03:37:22;101385.97;;;18.73;100.00
64192;BME280;50497;50.720;-2.084;2022-08-19T03:39:56;101376.84;;;18.61;100.00
64192;BME280;50497;50.720;-2.084;2022-08-19T03:42:22;101391.38;;;18.47;100.00
64192;BME280;50497;50.720;-2.084;2022-08-19T03:44:54;101393.34;;;18.58;100.00
64192;BME280;50497;50.720;-2.084;2022-08-19T03:47:23;101388.66;;;18.47;100.00
64192;BME280;50497;50.720;-2.084;2022-08-19T03:49:52;101397.44;;;18.51;100.00
64192;BME280;50497;50.720;-2.084;2022-08-19T03:52:24;101399.81;;;18.55;100.00
64192;BME280;50497;50.720;-2.084;2022-08-19T03:54:50;101406.34;;;18.53;100.00
64192;BME280;50497;50.720;-2.084;2022-08-19T03:57:16;101406.78;;;18.59;100.00
64192;BME280;50497;50.720;-2.084;2022-08-19T03:59:41;101404.38;;;18.68;100.00
64192;BME280;50497;50.720;-2.084;2022-08-19T04:02:10;101407.22;;;18.66;100.00
64192;BME280;50497;50.720;-2.084;2022-08-19T04:04:43;101412.63;;;18.66;100.00
64192;BME280;50497;50.720;-2.084;2022-08-19T04:07:13;101399.28;;;18.63;100.00
64192;BME280;50497;50.720;-2.084;2022-08-19T04:09:47;101401.22;;;18.74;100.00
64192;BME280;50497;50.720;-2.084;2022-08-19T04:12:13;101399.41;;;18.74;100.00
64192;BME280;50497;50.720;-2.084;2022-08-19T04:14:42;101393.09;;;18.74;100.00
64192;BME280;50497;50.720;-2.084;2022-08-19T04:17:07;101399.16;;;18.77;100.00
64192;BME280;50497;50.720;-2.084;2022-08-19T04:19:37;101401.13;;;18.75;100.00
64192;BME280;50497;50.720;-2.084;2022-08-19T04:22:05;101397.34;;;18.78;100.00
64192;BME280;50497;50.720;-2.084;2022-08-19T04:24:34;101395.28;;;18.69;100.00
64192;BME280;50497;50.720;-2.084;2022-08-19T04:27:03;101394.63;;;18.78;100.00
64192;BME280;50497;50.720;-2.084;2022-08-19T04:29:33;101396.81;;;18.73;100.00
64192;BME280;50497;50.720;-2.084;2022-08-19T04:32:16;101392.13;;;18.75;100.00
64192;BME280;50497;50.720;-2.084;2022-08-19T04:34:42;101392.34;;;18.72;100.00
64192;BME280;50497;50.720;-2.084;2022-08-19T04:37:12;101401.75;;;18.79;100.00
64192;BME280;50497;50.720;-2.084;2022-08-19T04:39:38;101410.69;;;18.81;100.00
64192;BME280;50497;50.720;-2.084;2022-08-19T04:42:22;101409.78;;;18.80;100.00
64192;BME280;50497;50.720;-2.084;2022-08-19T04:45:10;101408.75;;;18.83;100.00
64192;BME280;50497;50.720;-2.084;2022-08-19T04:47:40;101417.81;;;18.82;100.00
64192;BME280;50497;50.720;-2.084;2022-08-19T04:50:16;101422.59;;;18.78;100.00
64192;BME280;50497;50.720;-2.084;2022-08-19T04:52:42;101424.44;;;18.78;100.00
64192;BME280;50497;50.720;-2.084;2022-08-19T04:55:11;101426.25;;;18.77;100.00
64192;BME280;50497;50.720;-2.084;2022-08-19T04:57:40;101429.97;;;18.76;100.00
64192;BME280;50497;50.720;-2.084;2022-08-19T05:00:10;101418.66;;;18.82;100.00
64192;BME280;50497;50.720;-2.084;2022-08-19T05:02:37;101420.53;;;18.82;100.00
64192;BME280;50497;50.720;-2.084;2022-08-19T05:05:03;101420.84;;;18.77;100.00
64192;BME280;50497;50.720;-2.084;2022-08-19T05:07:32;101427.72;;;18.83;100.00
64192;BME280;50497;50.720;-2.084;2022-08-19T05:09:58;101420.75;;;18.66;100.00
64192;BME280;50497;50.720;-2.084;2022-08-19T05:12:24;101430.50;;;18.69;100.00
64192;BME280;50497;50.720;-2.084;2022-08-19T05:14:50;101433.44;;;18.65;100.00
64192;BME280;50497;50.720;-2.084;2022-08-19T05:17:17;101426.03;;;18.68;100.00
64192;BME280;50497;50.720;-2.084;2022-08-19T05:19:46;101434.75;;;18.73;100.00
64192;BME280;50497;50.720;-2.084;2022-08-19T05:22:30;101445.34;;;18.76;100.00
64192;BME280;50497;50.720;-2.084;2022-08-19T05:25:13;101436.56;;;18.72;100.00
64192;BME280;50497;50.720;-2.084;2022-08-19T05:27:40;101437.34;;;18.74;100.00
64192;BME280;50497;50.720;-2.084;2022-08-19T05:30:15;101440.28;;;18.71;100.00
64192;BME280;50497;50.720;-2.084;2022-08-19T05:32:40;101447.09;;;18.77;100.00
64192;BME280;50497;50.720;-2.084;2022-08-19T05:35:14;101433.75;;;18.74;100.00
64192;BME280;50497;50.720;-2.084;2022-08-19T05:37:47;101439.94;;;18.76;100.00
64192;BME280;50497;50.720;-2.084;2022-08-19T05:40:16;101440.19;;;18.86;100.00
64192;BME280;50497;50.720;-2.084;2022-08-19T05:42:46;101437.25;;;18.89;100.00
64192;BME280;50497;50.720;-2.084;2022-08-19T05:45:14;101446.03;;;18.92;100.00
64192;BME280;50497;50.720;-2.084;2022-08-19T05:47:40;101442.69;;;18.89;100.00
64192;BME280;50497;50.720;-2.084;2022-08-19T05:50:06;101455.38;;;18.88;100.00
64192;BME280;50497;50.720;-2.084;2022-08-19T05:52:36;101436.94;;;18.93;100.00
64192;BME280;50497;50.720;-2.084;2022-08-19T05:55:07;101455.25;;;18.90;100.00
64192;BME280;50497;50.720;-2.084;2022-08-19T05:57:41;101452.13;;;18.83;100.00
64192;BME280;50497;50.720;-2.084;2022-08-19T06:00:14;101451.91;;;18.86;100.00
64192;BME280;50497;50.720;-2.084;2022-08-19T06:02:44;101457.88;;;18.91;100.00
64192;BME280;50497;50.720;-2.084;2022-08-19T06:05:12;101459.91;;;19.00;100.00
64192;BME280;50497;50.720;-2.084;2022-08-19T06:07:42;101452.78;;;18.99;100.00
64192;BME280;50497;50.720;-2.084;2022-08-19T06:10:10;101463.41;;;19.02;100.00
64192;BME280;50497;50.720;-2.084;2022-08-19T06:12:39;101465.44;;;18.99;100.00
64192;BME280;50497;50.720;-2.084;2022-08-19T06:15:16;101470.84;;;18.99;100.00
64192;BME280;50497;50.720;-2.084;2022-08-19T06:17:47;101449.41;;;18.83;100.00
64192;BME280;50497;50.720;-2.084;2022-08-19T06:20:16;101464.78;;;18.95;100.00
64192;BME280;50497;50.720;-2.084;2022-08-19T06:22:52;101468.38;;;18.83;100.00
64192;BME280;50497;50.720;-2.084;2022-08-19T06:25:26;101468.94;;;18.88;100.00
64192;BME280;50497;50.720;-2.084;2022-08-19T06:27:56;101463.50;;;18.88;100.00
64192;BME280;50497;50.720;-2.084;2022-08-19T06:30:22;101457.63;;;18.81;100.00
64192;BME280;50497;50.720;-2.084;2022-08-19T06:32:51;101463.34;;;18.77;100.00
64192;BME280;50497;50.720;-2.084;2022-08-19T06:35:23;101457.19;;;18.75;100.00
64192;BME280;50497;50.720;-2.084;2022-08-19T06:37:50;101466.69;;;18.68;100.00
64192;BME280;50497;50.720;-2.084;2022-08-19T06:40:20;101475.38;;;18.47;100.00
64192;BME280;50497;50.720;-2.084;2022-08-19T06:42:51;101475.97;;;18.25;100.00
64192;BME280;50497;50.720;-2.084;2022-08-19T06:45:28;101478.94;;;18.07;100.00
64192;BME280;50497;50.720;-2.084;2022-08-19T06:47:57;101480.75;;;17.94;100.00
64192;BME280;50497;50.720;-2.084;2022-08-19T06:50:23;101486.47;;;17.89;100.00
64192;BME280;50497;50.720;-2.084;2022-08-19T06:52:49;101491.13;;;17.87;100.00
64192;BME280;50497;50.720;-2.084;2022-08-19T06:55:15;101492.16;;;17.85;100.00
64192;BME280;50497;50.720;-2.084;2022-08-19T06:57:41;101496.22;;;17.92;100.00
64192;BME280;50497;50.720;-2.084;2022-08-19T07:00:12;101495.75;;;17.85;100.00
64192;BME280;50497;50.720;-2.084;2022-08-19T07:02:42;101504.25;;;17.94;100.00
64192;BME280;50497;50.720;-2.084;2022-08-19T07:05:15;101509.16;;;18.01;100.00
64192;BME280;50497;50.720;-2.084;2022-08-19T07:07:44;101516.41;;;18.01;100.00
64192;BME280;50497;50.720;-2.084;2022-08-19T07:10:09;101516.25;;;17.89;100.00
64192;BME280;50497;50.720;-2.084;2022-08-19T07:12:35;101509.97;;;17.74;100.00
64192;BME280;50497;50.720;-2.084;2022-08-19T07:15:08;101515.41;;;17.60;100.00
64192;BME280;50497;50.720;-2.084;2022-08-19T07:17:40;101518.03;;;17.62;100.00
64192;BME280;50497;50.720;-2.084;2022-08-19T07:20:09;101515.50;;;17.73;100.00
64192;BME280;50497;50.720;-2.084;2022-08-19T07:22:36;101518.34;;;17.84;100.00
64192;BME280;50497;50.720;-2.084;2022-08-19T07:25:08;101522.81;;;17.85;100.00
64192;BME280;50497;50.720;-2.084;2022-08-19T07:27:37;101527.97;;;17.90;100.00
64192;BME280;50497;50.720;-2.084;2022-08-19T07:30:04;101534.44;;;17.87;100.00
64192;BME280;50497;50.720;-2.084;2022-08-19T07:32:36;101533.47;;;17.74;100.00
64192;BME280;50497;50.720;-2.084;2022-08-19T07:35:02;101530.00;;;17.72;100.00
64192;BME280;50497;50.720;-2.084;2022-08-19T07:37:32;101541.28;;;17.79;100.00
64192;BME280;50497;50.720;-2.084;2022-08-19T07:40:05;101532.09;;;17.96;100.00
64192;BME280;50497;50.720;-2.084;2022-08-19T07:42:32;101532.44;;;18.04;100.00
64192;BME280;50497;50.720;-2.084;2022-08-19T07:45:03;101533.09;;;18.07;100.00
64192;BME280;50497;50.720;-2.084;2022-08-19T07:47:30;101535.97;;;18.19;100.00
64192;BME280;50497;50.720;-2.084;2022-08-19T07:50:04;101550.84;;;18.26;100.00
64192;BME280;50497;50.720;-2.084;2022-08-19T07:52:30;101540.81;;;18.41;100.00
64192;BME280;50497;50.720;-2.084;2022-08-19T07:55:03;101539.63;;;18.45;100.00
64192;BME280;50497;50.720;-2.084;2022-08-19T07:57:34;101538.38;;;18.63;100.00
64192;BME280;50497;50.720;-2.084;2022-08-19T08:00:05;101536.53;;;18.51;100.00
64192;BME280;50497;50.720;-2.084;2022-08-19T08:02:33;101537.06;;;18.56;100.00
64192;BME280;50497;50.720;-2.084;2022-08-19T08:04:59;101546.19;;;18.68;100.00
64192;BME280;50497;50.720;-2.084;2022-08-19T08:07:44;101543.63;;;18.79;100.00
64192;BME280;50497;50.720;-2.084;2022-08-19T08:10:28;101553.31;;;18.96;100.00
64192;BME280;50497;50.720;-2.084;2022-08-19T08:13:02;101552.34;;;19.10;100.00
64192;BME280;50497;50.720;-2.084;2022-08-19T08:15:37;101535.41;;;19.07;100.00
64192;BME280;50497;50.720;-2.084;2022-08-19T08:18:10;101545.16;;;19.22;100.00
64192;BME280;50497;50.720;-2.084;2022-08-19T08:20:38;101543.19;;;19.37;100.00
64192;BME280;50497;50.720;-2.084;2022-08-19T08:23:07;101545.16;;;19.35;100.00
64192;BME280;50497;50.720;-2.084;2022-08-19T08:25:52;101547.22;;;19.44;100.00
64192;BME280;50497;50.720;-2.084;2022-08-19T08:28:18;101533.47;;;19.34;100.00
64192;BME280;50497;50.720;-2.084;2022-08-19T08:30:54;101551.03;;;19.42;100.00
64192;BME280;50497;50.720;-2.084;2022-08-19T08:33:27;101556.56;;;19.40;100.00
64192;BME280;50497;50.720;-2.084;2022-08-19T08:35:53;101555.53;;;19.54;100.00
64192;BME280;50497;50.720;-2.084;2022-08-19T08:38:18;101546.88;;;19.49;100.00
64192;BME280;50497;50.720;-2.084;2022-08-19T08:40:48;101551.00;;;19.54;100.00
64192;BME280;50497;50.720;-2.084;2022-08-19T08:43:33;101542.75;;;19.56;100.00
64192;BME280;50497;50.720;-2.084;2022-08-19T08:46:18;101546.97;;;19.60;100.00
64192;BME280;50497;50.720;-2.084;2022-08-19T08:49:05;101535.78;;;19.65;100.00
64192;BME280;50497;50.720;-2.084;2022-08-19T08:54:53;101544.81;;;20.26;100.00
64192;BME280;50497;50.720;-2.084;2022-08-19T08:57:52;101539.16;;;20.54;100.00
64192;BME280;50497;50.720;-2.084;2022-08-19T09:02:57;101536.53;;;20.52;100.00
64192;BME280;50497;50.720;-2.084;2022-08-19T09:05:32;101540.19;;;20.64;100.00
64192;BME280;50497;50.720;-2.084;2022-08-19T09:08:13;101532.31;;;20.72;100.00
64192;BME280;50497;50.720;-2.084;2022-08-19T09:10:53;101536.34;;;21.02;100.00
64192;BME280;50497;50.720;-2.084;2022-08-19T09:16:02;101525.22;;;21.39;100.00
64192;BME280;50497;50.720;-2.084;2022-08-19T09:19:01;101540.06;;;21.91;100.00
64192;BME280;50497;50.720;-2.084;2022-08-19T09:21:31;101531.28;;;22.20;100.00
64192;BME280;50497;50.720;-2.084;2022-08-19T09:24:04;101522.78;;;22.46;100.00
64192;BME280;50497;50.720;-2.084;2022-08-19T09:26:31;101527.00;;;22.50;100.00
64192;BME280;50497;50.720;-2.084;2022-08-19T09:28:58;101524.25;;;22.50;100.00
64192;BME280;50497;50.720;-2.084;2022-08-19T09:31:28;101521.28;;;22.53;100.00
64192;BME280;50497;50.720;-2.084;2022-08-19T09:33:55;101529.38;;;22.64;100.00
64192;BME280;50497;50.720;-2.084;2022-08-19T09:36:27;101522.22;;;22.63;100.00
64192;BME280;50497;50.720;-2.084;2022-08-19T09:38:58;101537.38;;;22.56;100.00
64192;BME280;50497;50.720;-2.084;2022-08-19T09:41:31;101536.75;;;22.20;100.00
64192;BME280;50497;50.720;-2.084;2022-08-19T09:43:58;101536.66;;;22.43;100.00
64192;BME280;50497;50.720;-2.084;2022-08-19T09:46:29;101532.88;;;23.09;100.00
64192;BME280;50497;50.720;-2.084;2022-08-19T09:48:58;101549.88;;;23.22;100.00
64192;BME280;50497;50.720;-2.084;2022-08-19T09:51:29;101536.09;;;23.23;100.00
64192;BME280;50497;50.720;-2.084;2022-08-19T09:54:02;101535.16;;;23.34;100.00
64192;BME280;50497;50.720;-2.084;2022-08-19T09:56:33;101536.81;;;23.97;100.00
64192;BME280;50497;50.720;-2.084;2022-08-19T09:59:00;101541.03;;;23.70;98.08
64192;BME280;50497;50.720;-2.084;2022-08-19T10:01:28;101542.22;;;24.57;93.16
64192;BME280;50497;50.720;-2.084;2022-08-19T10:04:00;101537.47;;;24.69;87.42
64192;BME280;50497;50.720;-2.084;2022-08-19T10:06:34;101538.84;;;25.02;85.43
64192;BME280;50497;50.720;-2.084;2022-08-19T10:09:00;101535.88;;;24.27;84.65
64192;BME280;50497;50.720;-2.084;2022-08-19T10:11:30;101539.00;;;24.52;86.62
64192;BME280;50497;50.720;-2.084;2022-08-19T10:14:01;101545.31;;;25.01;89.19
64192;BME280;50497;50.720;-2.084;2022-08-19T10:16:31;101541.63;;;25.40;81.28
64192;BME280;50497;50.720;-2.084;2022-08-19T10:19:04;101539.34;;;26.18;72.60
64192;BME280;50497;50.720;-2.084;2022-08-19T10:21:31;101530.16;;;26.82;73.43
64192;BME280;50497;50.720;-2.084;2022-08-19T10:24:05;101542.72;;;26.66;74.05
64192;BME280;50497;50.720;-2.084;2022-08-19T10:26:36;101531.38;;;26.87;73.92
64192;BME280;50497;50.720;-2.084;2022-08-19T10:29:04;101521.09;;;26.89;70.55
64192;BME280;50497;50.720;-2.084;2022-08-19T10:31:34;101534.28;;;27.12;64.29
64192;BME280;50497;50.720;-2.084;2022-08-19T10:34:03;101532.69;;;27.01;66.80
64192;BME280;50497;50.720;-2.084;2022-08-19T10:36:32;101532.06;;;26.63;68.95
64192;BME280;50497;50.720;-2.084;2022-08-19T10:39:09;101536.09;;;27.56;63.32
64192;BME280;50497;50.720;-2.084;2022-08-19T10:41:38;101536.94;;;26.96;65.90
64192;BME280;50497;50.720;-2.084;2022-08-19T10:44:10;101536.41;;;27.44;60.94
64192;BME280;50497;50.720;-2.084;2022-08-19T10:46:39;101537.34;;;28.04;60.65
64192;BME280;50497;50.720;-2.084;2022-08-19T10:49:08;101527.75;;;28.33;54.93
64192;BME280;50497;50.720;-2.084;2022-08-19T10:51:38;101531.84;;;27.61;55.74
64192;BME280;50497;50.720;-2.084;2022-08-19T10:54:23;101534.44;;;27.71;56.51
64192;BME280;50497;50.720;-2.084;2022-08-19T10:57:13;101528.25;;;28.28;52.84
64192;BME280;50497;50.720;-2.084;2022-08-19T10:59:39;101544.63;;;29.04;60.36
64192;BME280;50497;50.720;-2.084;2022-08-19T11:02:07;101530.22;;;28.61;49.09
64192;BME280;50497;50.720;-2.084;2022-08-19T11:04:40;101520.63;;;27.97;53.40
64192;BME280;50497;50.720;-2.084;2022-08-19T11:07:10;101543.03;;;28.27;54.13
64192;BME280;50497;50.720;-2.084;2022-08-19T11:09:41;101537.25;;;28.71;46.59
64192;BME280;50497;50.720;-2.084;2022-08-19T11:12:08;101546.91;;;28.59;48.81
64192;BME280;50497;50.720;-2.084;2022-08-19T11:14:41;101538.59;;;28.84;56.55
64192;BME280;50497;50.720;-2.084;2022-08-19T11:17:07;101535.28;;;29.21;54.06
64192;BME280;50497;50.720;-2.084;2022-08-19T11:19:33;101541.13;;;29.10;47.03
64192;BME280;50497;50.720;-2.084;2022-08-19T11:21:59;101547.53;;;29.10;52.10
64192;BME280;50497;50.720;-2.084;2022-08-19T11:24:26;101535.75;;;29.41;47.87
64192;BME280;50497;50.720;-2.084;2022-08-19T11:27:01;101525.06;;;29.38;46.29
64192;BME280;50497;50.720;-2.084;2022-08-19T11:29:32;101542.06;;;28.69;49.17
64192;BME280;50497;50.720;-2.084;2022-08-19T11:32:04;101544.25;;;28.41;50.40
64192;BME280;50497;50.720;-2.084;2022-08-19T11:34:36;101535.66;;;28.77;52.27
64192;BME280;50497;50.720;-2.084;2022-08-19T11:37:03;101542.03;;;27.86;47.73
64192;BME280;50497;50.720;-2.084;2022-08-19T11:39:34;101540.19;;;26.99;52.35
64192;BME280;50497;50.720;-2.084;2022-08-19T11:42:01;101545.06;;;26.25;61.30
64192;BME280;50497;50.720;-2.084;2022-08-19T11:44:47;101545.31;;;26.50;59.63
64192;BME280;50497;50.720;-2.084;2022-08-19T11:47:16;101541.75;;;27.54;59.46
64192;BME280;50497;50.720;-2.084;2022-08-19T11:49:46;101553.56;;;28.48;46.96
64192;BME280;50497;50.720;-2.084;2022-08-19T11:52:12;101546.16;;;28.49;52.15
64192;BME280;50497;50.720;-2.084;2022-08-19T11:54:38;101541.47;;;29.23;49.48
64192;BME280;50497;50.720;-2.084;2022-08-19T11:57:05;101542.34;;;29.72;46.05
64192;BME280;50497;50.720;-2.084;2022-08-19T11:59:34;101542.22;;;28.92;45.12
64192;BME280;50497;50.720;-2.084;2022-08-19T12:02:02;101528.03;;;29.28;46.44
64192;BME280;50497;50.720;-2.084;2022-08-19T12:04:27;101530.69;;;30.24;42.17
64192;BME280;50497;50.720;-2.084;2022-08-19T12:07:01;101528.16;;;30.46;40.90
64192;BME280;50497;50.720;-2.084;2022-08-19T12:09:27;101529.28;;;29.09;48.92
64192;BME280;50497;50.720;-2.084;2022-08-19T12:11:55;101532.06;;;28.85;47.38
64192;BME280;50497;50.720;-2.084;2022-08-19T12:14:28;101532.19;;;28.34;47.19
64192;BME280;50497;50.720;-2.084;2022-08-19T12:16:56;101522.72;;;27.26;52.74
64192;BME280;50497;50.720;-2.084;2022-08-19T12:19:22;101525.66;;;27.59;55.58
64192;BME280;50497;50.720;-2.084;2022-08-19T12:21:59;101530.97;;;27.69;48.87
64192;BME280;50497;50.720;-2.084;2022-08-19T12:24:30;101531.16;;;28.27;55.54
64192;BME280;50497;50.720;-2.084;2022-08-19T12:27:02;101532.31;;;29.39;57.72
64192;BME280;50497;50.720;-2.084;2022-08-19T12:29:31;101529.47;;;28.83;55.04
64192;BME280;50497;50.720;-2.084;2022-08-19T12:31:58;101525.38;;;28.79;51.76
64192;BME280;50497;50.720;-2.084;2022-08-19T12:34:32;101516.69;;;28.08;52.11
64192;BME280;50497;50.720;-2.084;2022-08-19T12:37:00;101526.19;;;27.71;56.92
64192;BME280;50497;50.720;-2.084;2022-08-19T12:39:26;101513.56;;;27.18;51.85
64192;BME280;50497;50.720;-2.084;2022-08-19T12:41:58;101527.78;;;26.51;63.78
64192;BME280;50497;50.720;-2.084;2022-08-19T12:44:26;101528.69;;;26.51;59.86
64192;BME280;50497;50.720;-2.084;2022-08-19T12:46:55;101530.31;;;26.26;62.29
64192;BME280;50497;50.720;-2.084;2022-08-19T12:49:21;101533.50;;;25.76;60.53
64192;BME280;50497;50.720;-2.084;2022-08-19T12:51:47;101526.63;;;25.44;65.13
64192;BME280;50497;50.720;-2.084;2022-08-19T12:54:13;101533.28;;;25.32;65.22
64192;BME280;50497;50.720;-2.084;2022-08-19T12:56:40;101535.03;;;24.56;64.31